Main page
METAR-TAF:

METAR-TAF

Airports :

Castle Airport

Merced, California, United States

latitude: 37-22N, longitude: 120-34W, elevation: 187 ft

METAR: missing

Time: 19:28 (03:28 UTC)

Forecast

The report was made 4 hours and 8 minutes ago, at 23:20 UTC
Forecast valid from 24 at 00 UTC to 24 at 24 UTC
Wind 6 mph from variable directions
Visibility: 6 miles
Broken clouds at a height of 20000 ft
Temporary
from 24 at 13 UTC to 24 at 17 UTC
Visibility: 2 miles
mist,

TAF: KMER 232320Z 2400/2424 VRB05KT P6SM BKN200 TEMPO 2413/2417 2SM BR AMD NOT SKED

Weather observations and forecasts of more than 4000 airports (METAR and TAF reports).

The available stations are represented by yellow and red dots on the map.

Hover mouse over dot to see the name of the station.

Then click to see weather observations and forecasts.

To change the map : click on the green buttons with a black cross to zoom in, on the green button with a dash to zoom out, or on the green arrows for adjacent maps.


METAR-TAF: